Time;durP1;ratioP1;P1;durP2;ratioP2;P2;SDS_P1;SDS_P2;PMS_P1;PMS_P2;Temp;Humidity;BMP_temperature;BMP_pressure;BME280_temperature;BME280_humidity;BME280_pressure;Samples;Min_cycle;Max_cycle;Signal;HPM_P1;HPM_P2
2023/10/08 07:49:25;;;;;;;18.00;6.20;;;;;;;11.54;73.27;99112.06;109951;1243;121937;-93
2023/10/08 08:01:17;;;;;;;;;;;;;;;;;;;;;
2023/10/08 08:36:53;;;;;;;8.10;2.70;;;;;;;11.82;71.82;99188.16;107811;1267;93315;-78
2023/10/08 08:43:36;;;;;;;11.70;3.50;;;;;;;11.73;71.04;99199.08;108191;1248;107606;-78
2023/10/08 08:46:56;;;;;;;13.60;3.50;;;;;;;11.76;71.04;99204.55;110238;1237;95348;-77
2023/10/08 08:50:17;;;;;;;16.40;4.80;;;;;;;11.76;71.13;99209.52;109425;1236;109315;-78
2023/10/08 08:57:38;;;;;;;;;;;;;;;;;;;;;
2023/10/08 09:00:42;;;;;;;7.20;3.20;;;;;;;11.61;70.47;99221.33;108936;1245;107729;-83
2023/10/08 09:23:07;;;;;;;;;;;;;;;;;;;;;
2023/10/08 09:30:39;;;;;;;17.50;5.10;;;;;;;11.91;68.98;99229.39;105611;1261;107663;-81
2023/10/08 10:31:20;;;;;;;16.50;4.90;;;;;;;12.66;64.18;99269.42;106796;1261;94763;-78
2023/10/08 10:38:49;;;;;;;;;;;;;;;;;;;;;
2023/10/08 16:14:54;;;;;;;20.00;7.60;;;;;;;9.18;49.62;99633.75;106974;1256;96978;-81
2023/10/08 16:17:21;;;;;;;98.40;42.50;;;;;;;9.13;49.79;99636.56;107315;1248;106947;-80
2023/10/08 16:20:09;;;;;;;89.10;31.50;;;;;;;9.09;49.81;99643.32;108306;1234;95214;-80
2023/10/08 16:22:45;;;;;;;41.60;15.40;;;;;;;9.03;49.75;99648.09;108665;1240;95778;-80
2023/10/08 16:25:19;;;;;;;27.40;13.40;;;;;;;8.95;49.94;99652.77;108552;1238;108541;-80
2023/10/08 16:28:12;;;;;;;10.40;3.60;;;;;;;8.90;49.90;99655.16;108289;1230;95384;-82
2023/10/08 16:30:39;;;;;;;3.70;2.50;;;;;;;8.83;49.94;99661.37;111218;1238;106630;-79
2023/10/08 16:33:11;;;;;;;3.60;2.20;;;;;;;8.78;50.02;99664.84;111317;1230;92903;-79
2023/10/08 16:35:38;;;;;;;5.40;2.00;;;;;;;8.74;50.01;99661.38;111359;1230;93102;-79
2023/10/08 16:38:08;;;;;;;5.10;2.20;;;;;;;8.72;50.26;99665.40;111324;1230;93273;-80
2023/10/08 16:40:35;;;;;;;8.10;2.80;;;;;;;8.68;50.21;99666.31;111330;1230;95207;-79
2023/10/08 16:43:01;;;;;;;5.80;1.90;;;;;;;8.65;50.30;99669.81;111300;1230;93275;-79
2023/10/08 16:45:28;;;;;;;9.60;2.40;;;;;;;8.61;50.25;99672.48;111355;1230;92839;-80
2023/10/08 16:47:57;;;;;;;28.20;10.00;;;;;;;8.57;50.37;99676.26;111299;1232;92926;-79
2023/10/08 16:50:26;;;;;;;160.10;55.70;;;;;;;8.52;50.41;99677.79;111280;1230;108003;-80
2023/10/08 16:52:55;;;;;;;315.60;95.90;;;;;;;8.47;50.44;99681.19;111371;1230;93255;-80
2023/10/08 16:55:25;;;;;;;106.60;36.70;;;;;;;8.43;50.44;99690.06;111286;1231;107500;-80
2023/10/08 16:57:52;;;;;;;25.90;9.80;;;;;;;8.37;50.56;99694.98;111290;1230;94260;-79
2023/10/08 17:00:35;;;;;;;12.50;3.80;;;;;;;8.32;50.56;99703.91;111354;1230;94628;-80
2023/10/08 17:03:02;;;;;;;7.00;2.90;;;;;;;8.28;50.74;99713.67;111387;1230;94697;-80
2023/10/08 17:05:29;;;;;;;21.20;3.20;;;;;;;8.23;50.56;99713.73;111288;1230;95410;-80
2023/10/08 17:07:57;;;;;;;4.70;2.30;;;;;;;8.21;50.47;99715.07;111345;1230;94368;-80
2023/10/08 17:10:29;;;;;;;4.90;2.10;;;;;;;8.19;50.59;99717.27;111279;1231;94453;-80
2023/10/08 17:12:57;;;;;;;5.10;2.20;;;;;;;8.17;50.67;99714.55;111312;1230;94178;-80
2023/10/08 17:15:29;;;;;;;5.60;2.30;;;;;;;8.15;50.67;99713.77;111308;1230;109337;-80
2023/10/08 17:17:56;;;;;;;5.90;2.30;;;;;;;8.14;50.75;99717.40;111330;1230;94775;-80
2023/10/08 17:20:26;;;;;;;12.00;4.20;;;;;;;8.12;50.69;99724.73;111467;1230;107607;-80
2023/10/08 17:22:55;;;;;;;17.90;5.40;;;;;;;8.09;50.71;99724.91;111257;1230;94567;-81
2023/10/08 17:25:23;;;;;;;17.90;4.90;;;;;;;8.08;50.74;99727.41;111376;1230;94161;-80
2023/10/08 17:27:51;;;;;;;18.40;6.00;;;;;;;8.06;50.95;99726.82;111348;1230;108749;-80
2023/10/08 17:30:18;;;;;;;24.30;8.30;;;;;;;8.02;50.80;99731.07;111351;1230;94276;-79
2023/10/08 17:32:53;;;;;;;19.10;6.70;;;;;;;7.99;50.89;99732.80;111301;1230;107543;-81
2023/10/08 17:35:20;;;;;;;17.70;6.00;;;;;;;7.97;50.88;99732.56;111284;1230;94252;-79
2023/10/08 17:37:47;;;;;;;20.90;7.10;;;;;;;7.96;50.74;99731.56;111363;1230;94453;-79
2023/10/08 17:40:14;;;;;;;18.60;6.80;;;;;;;7.96;50.95;99732.27;111313;1230;94446;-79
2023/10/08 17:43:04;;;;;;;18.10;6.40;;;;;;;7.95;51.05;99731.07;111354;1230;95772;-79
2023/10/08 17:45:35;;;;;;;21.10;8.50;;;;;;;7.94;50.95;99733.26;111374;1230;107411;-79
2023/10/08 17:48:06;;;;;;;20.00;8.50;;;;;;;7.94;51.03;99734.87;111271;1230;94575;-79
2023/10/08 17:50:37;;;;;;;21.30;9.20;;;;;;;7.90;51.01;99741.03;111353;1230;94192;-80
2023/10/08 17:53:05;;;;;;;22.80;8.90;;;;;;;7.87;51.22;99740.46;111300;1230;109793;-79
2023/10/08 17:55:33;;;;;;;27.20;10.40;;;;;;;7.85;51.15;99738.65;111297;1230;95119;-79
2023/10/08 17:58:03;;;;;;;41.00;17.90;;;;;;;7.82;51.12;99744.95;111346;1230;107355;-79
2023/10/08 18:00:40;;;;;;;25.80;9.20;;;;;;;7.77;51.24;99748.20;111466;1232;94297;-79
2023/10/08 18:03:15;;;;;;;24.10;9.80;;;;;;;7.73;51.33;99751.61;111345;1230;94211;-79
2023/10/08 18:05:44;;;;;;;23.80;9.00;;;;;;;7.69;51.36;99756.53;111303;1230;94416;-79
2023/10/08 18:08:15;;;;;;;30.80;12.00;;;;;;;7.67;51.15;99757.87;111357;1230;95415;-78
2023/10/08 18:10:42;;;;;;;37.40;15.20;;;;;;;7.65;51.18;99764.88;111335;1230;107454;-80
2023/10/08 18:13:09;;;;;;;32.90;13.80;;;;;;;7.64;51.45;99767.77;111279;1230;94193;-80
2023/10/08 18:15:38;;;;;;;28.50;10.90;;;;;;;7.61;51.28;99769.64;111361;1234;94181;-80
2023/10/08 18:18:09;;;;;;;27.10;10.20;;;;;;;7.59;51.55;99773.98;111330;1230;109931;-79
2023/10/08 18:20:43;;;;;;;21.90;7.90;;;;;;;7.57;51.60;99779.92;111309;1230;96171;-80
2023/10/08 18:23:11;;;;;;;21.70;8.40;;;;;;;7.54;51.39;99784.45;111312;1230;107465;-80
2023/10/08 18:25:45;;;;;;;21.50;7.40;;;;;;;7.53;51.58;99788.61;111335;1230;94207;-79
2023/10/08 18:28:13;;;;;;;17.80;6.20;;;;;;;7.51;51.46;99788.36;111315;1230;94133;-81
2023/10/08 18:30:44;;;;;;;14.30;5.20;;;;;;;7.49;51.74;99791.62;111349;1230;109083;-80
2023/10/08 18:33:11;;;;;;;12.90;4.90;;;;;;;7.47;51.60;99798.02;111280;1230;94272;-80
2023/10/08 18:35:39;;;;;;;19.90;7.40;;;;;;;7.45;51.67;99798.30;111339;1230;107419;-80
2023/10/08 18:38:06;;;;;;;20.00;6.10;;;;;;;7.44;51.67;99796.23;111301;1230;94580;-80
2023/10/08 18:40:39;;;;;;;14.70;4.70;;;;;;;7.42;51.87;99794.74;111391;1230;94539;-79
2023/10/08 18:43:08;;;;;;;8.10;3.30;;;;;;;7.40;51.58;99794.85;111298;1230;111034;-80
2023/10/08 18:45:35;;;;;;;8.90;3.50;;;;;;;7.41;51.83;99794.09;111377;1230;95395;-80
2023/10/08 18:48:03;;;;;;;15.50;5.40;;;;;;;7.41;51.70;99799.90;111445;1230;107355;-79
2023/10/08 18:50:30;;;;;;;14.80;5.10;;;;;;;7.42;51.74;99806.55;111388;1230;94218;-80
2023/10/08 18:52:56;;;;;;;11.20;3.70;;;;;;;7.41;52.04;99800.98;111333;1230;94322;-81
2023/10/08 18:55:24;;;;;;;9.00;3.00;;;;;;;7.38;51.96;99804.30;111479;1230;94551;-80
2023/10/08 18:58:11;;;;;;;10.80;3.90;;;;;;;7.36;51.86;99807.21;111438;1230;95678;-80
2023/10/08 19:00:38;;;;;;;12.60;3.80;;;;;;;7.36;52.06;99806.16;111287;1230;94311;-80
2023/10/08 19:03:09;;;;;;;10.50;4.00;;;;;;;7.37;51.97;99820.07;111297;1232;94531;-80
2023/10/08 19:05:36;;;;;;;11.50;4.20;;;;;;;7.36;51.93;99820.45;111370;1230;94163;-80
2023/10/08 19:08:04;;;;;;;9.90;3.80;;;;;;;7.36;52.03;99823.47;111353;1230;94647;-80
2023/10/08 19:10:31;;;;;;;10.00;3.50;;;;;;;7.34;52.04;99820.01;111339;1230;94446;-80
2023/10/08 19:12:58;;;;;;;9.90;3.70;;;;;;;7.32;52.06;99817.45;111460;1232;107174;-80
2023/10/08 19:15:26;;;;;;;10.60;3.90;;;;;;;7.30;52.19;99820.36;111384;1230;94206;-80
2023/10/08 19:18:04;;;;;;;11.90;4.40;;;;;;;7.28;52.18;99824.16;111345;1230;94163;-80
2023/10/08 19:20:37;;;;;;;10.80;3.40;;;;;;;7.25;52.09;99831.02;111331;1230;109281;-79
2023/10/08 19:23:07;;;;;;;12.00;3.90;;;;;;;7.25;52.30;99833.51;111360;1231;95231;-79
2023/10/08 19:25:39;;;;;;;10.30;3.50;;;;;;;7.24;52.32;99836.37;111205;1230;107842;-79
2023/10/08 19:28:08;;;;;;;12.00;3.70;;;;;;;7.22;52.18;99836.81;111300;1230;94534;-79
2023/10/08 19:30:39;;;;;;;11.30;3.80;;;;;;;7.20;52.32;99843.77;111292;1238;94634;-80
2023/10/08 19:33:07;;;;;;;13.30;4.20;;;;;;;7.17;52.26;99846.38;111453;1230;109795;-79
2023/10/08 19:35:38;;;;;;;11.00;3.70;;;;;;;7.15;52.59;99852.81;111287;1232;95865;-80
2023/10/08 19:38:07;;;;;;;7.20;3.00;;;;;;;7.10;52.41;99857.09;111261;1230;108256;-79
2023/10/08 19:40:37;;;;;;;10.70;3.40;;;;;;;7.07;52.79;99863.23;111355;1230;94604;-80
2023/10/08 19:43:04;;;;;;;14.80;4.20;;;;;;;7.02;52.62;99865.20;111259;1230;94553;-79
2023/10/08 19:45:36;;;;;;;13.30;4.10;;;;;;;7.00;52.76;99863.91;111363;1230;94405;-80
2023/10/08 19:48:05;;;;;;;12.40;3.90;;;;;;;6.97;52.99;99862.11;111318;1237;95986;-79
2023/10/08 19:50:40;;;;;;;17.00;4.20;;;;;;;6.93;52.98;99857.14;111285;1230;108534;-80
2023/10/08 19:53:14;;;;;;;12.10;4.30;;;;;;;6.91;53.09;99861.48;111376;1230;94132;-79
2023/10/08 19:55:50;;;;;;;16.90;4.80;;;;;;;6.89;53.59;99866.17;111372;1230;94454;-80
2023/10/08 19:58:20;;;;;;;16.30;4.80;;;;;;;6.88;53.23;99872.55;111442;1230;111010;-80
2023/10/08 20:00:49;;;;;;;18.60;5.30;;;;;;;6.87;53.34;99872.05;111537;1230;94740;-79
2023/10/08 20:03:19;;;;;;;13.20;4.80;;;;;;;6.85;53.56;99874.77;111311;1230;106427;-79
2023/10/08 20:05:49;;;;;;;14.30;4.70;;;;;;;6.85;53.36;99871.77;111293;1230;94262;-79
2023/10/08 20:08:16;;;;;;;16.70;5.30;;;;;;;6.86;53.41;99870.54;111352;1231;94516;-79
2023/10/08 20:10:48;;;;;;;13.30;4.40;;;;;;;6.86;53.51;99874.40;111322;1231;109266;-80
2023/10/08 20:13:15;;;;;;;15.10;4.70;;;;;;;6.84;53.53;99873.24;111353;1230;94462;-80
2023/10/08 20:15:45;;;;;;;12.70;3.70;;;;;;;6.83;53.86;99873.98;111305;1230;107287;-79
2023/10/08 20:18:12;;;;;;;12.50;3.70;;;;;;;6.81;53.77;99877.09;111415;1230;94295;-80
2023/10/08 20:20:43;;;;;;;15.50;4.60;;;;;;;6.80;53.85;99877.67;111439;1230;94229;-80
2023/10/08 20:23:10;;;;;;;19.90;5.80;;;;;;;6.77;53.91;99878.52;111476;1230;109437;-80
2023/10/08 20:25:40;;;;;;;14.20;5.00;;;;;;;6.75;53.95;99880.71;111237;1239;94182;-80
2023/10/08 20:28:09;;;;;;;11.70;4.00;;;;;;;6.74;53.75;99882.85;111299;1230;106367;-80
2023/10/08 20:30:43;;;;;;;10.50;3.70;;;;;;;6.72;53.93;99883.45;111325;1230;94542;-80
2023/10/08 20:33:11;;;;;;;11.50;3.80;;;;;;;6.70;53.92;99884.10;111311;1230;94486;-80
2023/10/08 20:35:43;;;;;;;12.40;4.40;;;;;;;6.70;53.99;99883.90;111377;1232;109747;-79
2023/10/08 20:38:13;;;;;;;13.10;4.50;;;;;;;6.70;53.90;99887.24;111303;1237;95685;-79
2023/10/08 20:40:45;;;;;;;12.80;4.60;;;;;;;6.70;53.88;99889.36;111326;1230;107533;-79
2023/10/08 20:43:30;;;;;;;12.50;4.70;;;;;;;6.68;54.20;99893.16;111356;1230;94484;-79
2023/10/08 20:46:02;;;;;;;19.20;6.60;;;;;;;6.68;54.25;99896.52;111487;1234;94267;-80
2023/10/08 20:48:31;;;;;;;21.20;7.20;;;;;;;6.68;54.13;99897.54;111315;1232;109753;-80
2023/10/08 20:50:59;;;;;;;13.50;4.90;;;;;;;6.70;54.06;99895.73;111448;1231;94630;-80
2023/10/08 20:53:28;;;;;;;14.80;5.70;;;;;;;6.71;54.01;99892.17;111274;1232;108206;-80
2023/10/08 20:55:55;;;;;;;13.50;5.30;;;;;;;6.72;54.08;99891.42;111280;1230;94227;-80
2023/10/08 20:58:27;;;;;;;14.90;5.50;;;;;;;6.73;54.05;99891.20;111367;1231;94168;-80
2023/10/08 21:01:14;;;;;;;14.30;4.90;;;;;;;6.74;54.07;99892.05;111347;1231;110758;-80
2023/10/08 21:03:43;;;;;;;26.40;12.30;;;;;;;6.73;54.22;99893.98;111373;1232;95511;-80
2023/10/08 21:06:19;;;;;;;35.50;16.50;;;;;;;6.74;54.15;99893.95;111412;1230;106677;-79
2023/10/08 21:08:46;;;;;;;24.30;10.10;;;;;;;6.73;54.24;99892.57;111348;1231;94632;-80
2023/10/08 21:11:13;;;;;;;17.40;5.80;;;;;;;6.71;54.24;99896.56;111414;1237;94697;-79
2023/10/08 21:13:43;;;;;;;8.60;3.30;;;;;;;6.69;54.36;99901.92;111330;1230;109167;-80
2023/10/08 21:16:14;;;;;;;8.70;3.30;;;;;;;6.67;54.25;99903.95;111397;1231;94235;-79
2023/10/08 21:18:43;;;;;;;14.20;3.60;;;;;;;6.66;54.41;99907.89;111375;1232;107099;-80
2023/10/08 21:21:22;;;;;;;9.90;3.50;;;;;;;6.66;54.40;99911.61;111373;1230;94463;-80
2023/10/08 21:23:53;;;;;;;12.80;3.70;;;;;;;6.62;54.48;99913.48;111257;1232;94487;-80
2023/10/08 21:27:07;;;;;;;9.00;3.40;;;;;;;6.60;54.48;99917.29;111386;1231;109856;-79
2023/10/08 21:29:34;;;;;;;12.10;3.50;;;;;;;6.58;54.73;99918.09;111455;1231;95067;-79
2023/10/08 21:32:03;;;;;;;10.50;3.40;;;;;;;6.57;54.65;99920.41;111287;1237;107426;-79
2023/10/08 21:34:34;;;;;;;8.90;3.50;;;;;;;6.55;54.60;99925.80;111269;1232;94996;-79
2023/10/08 21:37:04;;;;;;;10.00;3.30;;;;;;;6.52;54.88;99928.74;111354;1230;94668;-79
2023/10/08 21:39:39;;;;;;;10.00;3.70;;;;;;;6.48;54.63;99929.27;111452;1232;110114;-79
2023/10/08 21:42:08;;;;;;;9.90;3.30;;;;;;;6.46;54.85;99931.63;111319;1231;95311;-79
2023/10/08 21:44:34;;;;;;;10.20;3.20;;;;;;;6.43;54.86;99928.41;111262;1238;106731;-79
2023/10/08 21:47:01;;;;;;;10.50;3.20;;;;;;;6.39;54.73;99925.54;111320;1238;94209;-80
2023/10/08 21:49:34;;;;;;;10.80;3.50;;;;;;;6.39;55.03;99932.27;111326;1231;94628;-80
2023/10/08 21:52:02;;;;;;;11.80;4.70;;;;;;;6.38;55.00;99932.30;111311;1232;110370;-79
2023/10/08 21:54:29;;;;;;;9.00;3.30;;;;;;;6.35;55.13;99929.63;111322;1231;95381;-80
2023/10/08 21:56:56;;;;;;;14.40;4.50;;;;;;;6.34;54.87;99927.89;111406;1232;94258;-79
2023/10/08 21:59:23;;;;;;;13.80;4.10;;;;;;;6.31;55.40;99931.89;111419;1232;94449;-80
2023/10/08 22:01:50;;;;;;;12.90;4.70;;;;;;;6.27;55.11;99928.70;111357;1230;94540;-79
2023/10/08 22:04:16;;;;;;;12.30;3.70;;;;;;;6.26;55.29;99935.45;111337;1230;94908;-80
2023/10/08 22:06:47;;;;;;;11.80;4.00;;;;;;;6.24;55.32;99934.28;111352;1232;94256;-80
2023/10/08 22:09:17;;;;;;;12.90;3.60;;;;;;;6.24;55.37;99934.98;111312;1232;108741;-80
2023/10/08 22:11:43;;;;;;;13.50;4.50;;;;;;;6.25;55.62;99936.02;111358;1231;94360;-80
2023/10/08 22:14:18;;;;;;;13.10;4.20;;;;;;;6.20;55.82;99936.20;111303;1232;94552;-79
2023/10/08 22:16:46;;;;;;;14.00;4.40;;;;;;;6.16;55.55;99937.95;111175;1232;230261;-80
2023/10/08 22:19:13;;;;;;;10.30;3.60;;;;;;;6.15;55.62;99942.75;111350;1231;94432;-79
2023/10/08 22:21:43;;;;;;;10.70;4.40;;;;;;;6.12;55.74;99942.17;111179;1234;106621;-79
2023/10/08 22:24:18;;;;;;;11.60;4.20;;;;;;;6.12;55.54;99940.94;111352;1232;94391;-79
2023/10/08 22:26:45;;;;;;;13.70;3.80;;;;;;;6.13;55.81;99942.48;111351;1231;94266;-80
2023/10/08 22:29:11;;;;;;;11.20;4.10;;;;;;;6.10;55.88;99940.46;111356;1230;94444;-79
2023/10/08 22:31:44;;;;;;;14.50;4.70;;;;;;;6.08;55.76;99937.92;111416;1237;94311;-80
2023/10/08 22:34:16;;;;;;;12.70;4.00;;;;;;;6.08;56.19;99939.86;111468;1232;106607;-80
2023/10/08 22:37:07;;;;;;;12.70;4.90;;;;;;;6.06;56.39;99942.41;111356;1230;94594;-80
2023/10/08 22:39:34;;;;;;;14.40;4.40;;;;;;;6.06;56.15;99941.70;111362;1232;94367;-79
2023/10/08 22:42:02;;;;;;;12.20;4.10;;;;;;;6.08;56.12;99941.45;111383;1232;94656;-79
2023/10/08 22:44:37;;;;;;;14.00;4.50;;;;;;;6.07;56.11;99946.05;111328;1234;95357;-80
2023/10/08 22:49:34;;;;;;;13.20;4.50;;;;;;;6.10;56.07;99946.66;111465;1230;94163;-79
2023/10/08 22:52:07;;;;;;;13.40;4.20;;;;;;;6.08;56.10;99954.11;111354;1232;94439;-79
2023/10/08 22:54:37;;;;;;;15.00;4.70;;;;;;;6.08;56.05;99950.43;111362;1230;110870;-80
2023/10/08 22:57:05;;;;;;;13.90;4.70;;;;;;;6.09;56.06;99952.67;111369;1237;95698;-79
2023/10/08 22:59:33;;;;;;;12.90;5.10;;;;;;;6.09;56.24;99955.15;111403;1232;108051;-79
2023/10/08 23:02:12;;;;;;;14.00;5.00;;;;;;;6.10;56.05;99957.40;111296;1230;94276;-79
2023/10/08 23:04:43;;;;;;;15.70;5.20;;;;;;;6.06;56.16;99962.64;111344;1232;94436;-80
2023/10/08 23:07:15;;;;;;;12.00;4.80;;;;;;;6.03;56.14;99967.52;111424;1231;109778;-81
2023/10/08 23:09:44;;;;;;;16.80;6.30;;;;;;;6.00;56.28;99969.23;111300;1232;96542;-78
2023/10/08 23:12:12;;;;;;;15.40;5.60;;;;;;;6.01;56.35;99970.25;111351;1232;94520;-78
2023/10/08 23:14:39;;;;;;;17.70;5.40;;;;;;;5.99;56.27;99974.70;111315;1238;94506;-78
2023/10/08 23:17:07;;;;;;;16.10;6.20;;;;;;;5.96;56.22;99977.44;111415;1231;94203;-77
2023/10/08 23:19:33;;;;;;;16.10;5.00;;;;;;;5.93;56.39;99974.23;111397;1232;94232;-78
2023/10/08 23:22:02;;;;;;;13.20;5.20;;;;;;;5.87;56.38;99966.52;111318;1232;94666;-78
2023/10/08 23:24:29;;;;;;;15.30;5.40;;;;;;;5.86;56.68;99963.06;111358;1230;108121;-78
2023/10/08 23:27:02;;;;;;;17.20;5.20;;;;;;;5.85;56.59;99964.13;111349;1231;94203;-78
2023/10/08 23:29:29;;;;;;;15.90;5.30;;;;;;;5.85;56.68;99960.80;111368;1231;94576;-78
2023/10/08 23:31:58;;;;;;;17.50;5.70;;;;;;;5.83;56.58;99966.49;111402;1231;109276;-78
2023/10/08 23:34:27;;;;;;;14.30;4.60;;;;;;;5.81;56.64;99966.55;111381;1236;96017;-78
2023/10/08 23:37:21;;;;;;;12.80;4.80;;;;;;;5.79;56.50;99962.95;111343;1232;94612;-78
2023/10/08 23:39:44;;;;;;;15.00;5.40;;;;;;;5.78;56.88;99956.29;111454;1230;94238;-78
2023/10/08 23:44:59;;;;;;;16.20;5.60;;;;;;;5.74;56.77;99946.06;111533;1232;109750;-78
2023/10/08 23:47:29;;;;;;;24.30;7.10;;;;;;;5.73;56.85;99941.36;111354;1232;95267;-78
2023/10/08 23:50:13;;;;;;;17.00;6.40;;;;;;;5.73;56.90;99940.48;111356;1231;108079;-78
2023/10/08 23:52:40;;;;;;;15.40;6.10;;;;;;;5.72;56.92;99939.11;111281;1230;94631;-78
2023/10/08 23:55:23;;;;;;;14.50;5.20;;;;;;;5.73;57.06;99936.08;111453;1230;94548;-78
2023/10/08 23:58:05;;;;;;;13.40;5.00;;;;;;;5.73;56.96;99933.23;111397;1232;110482;-77
